createdAt,value
2017-07-18T00:00:07.954Z,20
2017-07-18T00:02:07.023Z,20
2017-07-18T00:04:07.134Z,20
2017-07-18T00:06:19.469Z,20
2017-07-18T00:08:07.393Z,20
2017-07-18T00:10:07.148Z,20
2017-07-18T00:12:06.932Z,20
2017-07-18T00:14:09.304Z,20
2017-07-18T00:16:07.000Z,20
2017-07-18T00:18:27.117Z,20
2017-07-18T00:20:06.954Z,20
2017-07-18T00:22:06.709Z,20
2017-07-18T00:24:11.456Z,20
2017-07-18T00:26:07.264Z,20
2017-07-18T00:28:06.977Z,20
2017-07-18T00:30:06.714Z,20
2017-07-18T00:32:06.522Z,20
2017-07-18T00:34:07.252Z,20
2017-07-18T00:36:07.104Z,20
2017-07-18T00:38:14.447Z,20
2017-07-18T00:40:09.670Z,20
2017-07-18T00:42:12.523Z,20
2017-07-18T00:44:07.391Z,20
2017-07-18T00:46:07.111Z,20
2017-07-18T00:48:06.835Z,20
2017-07-18T00:50:06.638Z,20
2017-07-18T00:52:09.943Z,20
2017-07-18T00:54:09.258Z,20
2017-07-18T00:56:09.568Z,20
2017-07-18T00:58:07.284Z,20
2017-07-18T01:00:09.532Z,20
2017-07-18T01:02:12.391Z,20
2017-07-18T01:04:07.095Z,20
2017-07-18T01:06:06.831Z,20
2017-07-18T01:08:11.788Z,20
2017-07-18T01:10:06.479Z,20
2017-07-18T01:12:07.292Z,20
2017-07-18T01:14:09.796Z,20
2017-07-18T01:16:09.066Z,20
2017-07-18T01:18:06.969Z,20
2017-07-18T01:20:07.093Z,20
2017-07-18T01:22:06.849Z,20
2017-07-18T01:24:06.701Z,20
2017-07-18T01:26:06.641Z,20
2017-07-18T01:28:07.339Z,20
2017-07-18T01:30:07.042Z,20
2017-07-18T01:32:06.977Z,20
2017-07-18T01:34:06.667Z,20
2017-07-18T01:36:07.379Z,20
2017-07-18T01:38:07.181Z,20
2017-07-18T01:40:09.692Z,20
2017-07-18T01:42:06.589Z,20
2017-07-18T01:44:07.448Z,20
2017-07-18T01:46:09.658Z,20
2017-07-18T01:48:09.956Z,20
2017-07-18T01:50:06.749Z,20
2017-07-18T01:52:06.515Z,20
2017-07-18T01:54:07.193Z,20
2017-07-18T01:56:07.138Z,20
2017-07-18T01:58:09.427Z,20
2017-07-18T02:00:09.649Z,20
2017-07-18T02:02:07.529Z,20
2017-07-18T02:04:09.719Z,20
2017-07-18T02:06:06.431Z,20
2017-07-18T02:08:09.699Z,20
2017-07-18T02:10:06.422Z,20
2017-07-18T02:12:07.419Z,20
2017-07-18T02:14:09.833Z,20
2017-07-18T02:16:06.581Z,20
2017-07-18T02:18:06.626Z,20
2017-07-18T02:20:12.402Z,20
2017-07-18T02:22:09.637Z,20
2017-07-18T02:24:20.062Z,20
2017-07-18T02:26:09.449Z,20
2017-07-18T02:28:07.199Z,20
2017-07-18T02:30:06.909Z,20
2017-07-18T02:32:06.812Z,20
2017-07-18T02:34:19.233Z,20
2017-07-18T02:36:06.941Z,20
2017-07-18T02:38:06.776Z,20
2017-07-18T02:40:09.064Z,20
2017-07-18T02:42:16.950Z,20
2017-07-18T02:44:11.784Z,20
2017-07-18T02:46:06.554Z,20
2017-07-18T02:48:07.270Z,20
2017-07-18T02:50:09.691Z,20
2017-07-18T02:52:11.485Z,20
2017-07-18T02:54:09.765Z,20
2017-07-18T02:56:06.862Z,20
2017-07-18T02:58:06.564Z,20
2017-07-18T03:00:07.559Z,20
2017-07-18T03:02:07.395Z,20
2017-07-18T03:04:09.610Z,20
2017-07-18T03:06:07.315Z,20
2017-07-18T03:08:07.238Z,20
2017-07-18T03:10:14.507Z,20
2017-07-18T03:12:07.217Z,20
2017-07-18T03:14:09.619Z,20
2017-07-18T03:16:07.440Z,20
2017-07-18T03:18:07.346Z,20
2017-07-18T03:20:07.047Z,20
2017-07-18T03:22:09.236Z,20
2017-07-18T03:24:06.926Z,20
2017-07-18T03:26:06.696Z,20
2017-07-18T03:28:06.413Z,20
2017-07-18T03:30:12.260Z,20
2017-07-18T03:32:09.718Z,20
2017-07-18T03:34:09.063Z,20
2017-07-18T03:36:06.809Z,20
2017-07-18T03:38:06.587Z,20
2017-07-18T03:40:14.842Z,20
2017-07-18T03:42:06.595Z,20
2017-07-18T03:44:07.354Z,20
2017-07-18T03:46:14.685Z,20
2017-07-18T03:48:06.555Z,20
2017-07-18T03:50:10.122Z,20
2017-07-18T03:52:09.354Z,20
2017-07-18T03:54:07.043Z,20
2017-07-18T03:56:06.762Z,20
2017-07-18T03:58:08.997Z,20
2017-07-18T04:00:09.237Z,20
2017-07-18T04:02:09.583Z,20
2017-07-18T04:04:07.465Z,20
2017-07-18T04:06:12.211Z,20
2017-07-18T04:08:06.944Z,20
2017-07-18T04:10:11.740Z,20
2017-07-18T04:12:08.937Z,20
2017-07-18T04:14:12.067Z,20
2017-07-18T04:16:06.782Z,20
2017-07-18T04:18:06.674Z,20
2017-07-18T04:20:07.535Z,20
2017-07-18T04:22:12.313Z,20
2017-07-18T04:24:14.676Z,20
2017-07-18T04:26:07.450Z,20
2017-07-18T04:28:07.251Z,20
2017-07-18T04:30:07.095Z,20
2017-07-18T04:32:09.494Z,20
2017-07-18T04:34:12.319Z,20
2017-07-18T04:36:09.760Z,20
2017-07-18T04:38:11.725Z,20
2017-07-18T04:40:09.031Z,20
2017-07-18T04:42:11.916Z,20
2017-07-18T04:44:06.785Z,20
2017-07-18T04:46:09.009Z,20
2017-07-18T04:48:11.815Z,20
2017-07-18T04:50:06.717Z,20
2017-07-18T04:52:09.108Z,20
2017-07-18T04:54:06.912Z,20
2017-07-18T04:56:11.013Z,20
2017-07-18T04:58:07.042Z,21
2017-07-18T05:00:06.792Z,20
2017-07-18T05:02:09.399Z,20
2017-07-18T05:04:12.264Z,21
2017-07-18T05:06:06.984Z,21
2017-07-18T05:08:06.910Z,21
2017-07-18T05:10:09.221Z,21
2017-07-18T05:12:09.497Z,21
2017-07-18T05:14:07.353Z,21
2017-07-18T05:16:12.186Z,21
2017-07-18T05:18:09.659Z,21
2017-07-18T05:20:07.612Z,21
2017-07-18T05:22:14.944Z,21
2017-07-18T05:24:07.485Z,21
2017-07-18T05:26:09.873Z,23
2017-07-18T05:28:09.148Z,23
2017-07-18T05:30:06.936Z,22
2017-07-18T05:32:09.273Z,22
2017-07-18T05:34:06.981Z,22
2017-07-18T05:36:06.821Z,22
2017-07-18T05:38:09.182Z,23
2017-07-18T05:40:09.506Z,23
2017-07-18T05:42:09.883Z,25
2017-07-18T05:44:07.200Z,25
2017-07-18T05:46:07.063Z,21
2017-07-18T05:48:06.914Z,26
2017-07-18T05:50:09.461Z,25
2017-07-18T05:52:10.164Z,24
2017-07-18T05:54:06.954Z,25
2017-07-18T05:56:09.566Z,24
2017-07-18T05:58:09.959Z,25
2017-07-18T06:00:07.119Z,26
2017-07-18T06:02:12.394Z,25
2017-07-18T06:04:10.006Z,23
2017-07-18T06:06:07.220Z,26
2017-07-18T06:08:07.730Z,27
2017-07-18T06:10:06.803Z,27
2017-07-18T06:12:09.472Z,27
2017-07-18T06:14:10.347Z,26
2017-07-18T06:16:12.655Z,26
2017-07-18T06:18:07.107Z,26
2017-07-18T06:20:06.944Z,30
2017-07-18T06:22:09.272Z,27
2017-07-18T06:24:12.034Z,26
2017-07-18T06:26:17.042Z,27
2017-07-18T06:28:11.950Z,27
2017-07-18T06:30:11.719Z,27
2017-07-18T06:32:09.110Z,27
2017-07-18T06:34:06.923Z,27
2017-07-18T06:36:16.837Z,26
2017-07-18T06:38:06.599Z,26
2017-07-18T06:40:07.360Z,26
2017-07-18T06:42:09.642Z,26
2017-07-18T06:44:10.168Z,26
2017-07-18T06:46:08.444Z,26
2017-07-18T06:48:17.135Z,26
2017-07-18T06:50:08.598Z,26
2017-07-18T06:52:07.330Z,29
2017-07-18T06:54:09.627Z,29
2017-07-18T06:56:17.891Z,29
2017-07-18T06:58:07.598Z,27
2017-07-18T07:00:10.245Z,27
2017-07-18T07:02:09.498Z,29
2017-07-18T07:04:07.244Z,27
2017-07-18T07:06:12.035Z,27
2017-07-18T07:08:08.061Z,27
2017-07-18T07:10:14.411Z,27
2017-07-18T07:12:07.217Z,27
2017-07-18T07:14:12.065Z,29
2017-07-18T07:16:06.812Z,29
2017-07-18T07:18:07.033Z,27
2017-07-18T07:20:09.429Z,27
2017-07-18T07:22:10.475Z,29
2017-07-18T07:24:16.701Z,29
2017-07-18T07:26:06.752Z,27
2017-07-18T07:28:19.553Z,27
2017-07-18T07:30:14.474Z,27
2017-07-18T07:32:07.966Z,27
2017-07-18T07:34:06.744Z,27
2017-07-18T07:36:08.391Z,27
2017-07-18T07:38:10.602Z,27
2017-07-18T07:40:09.681Z,27
2017-07-18T07:42:15.597Z,25
2017-07-18T07:44:10.748Z,26
2017-07-18T07:46:15.746Z,25
2017-07-18T07:48:09.342Z,25
2017-07-18T07:50:15.648Z,25
2017-07-18T07:52:14.653Z,26
2017-07-18T07:54:09.870Z,25
2017-07-18T07:56:06.729Z,25
2017-07-18T07:58:06.488Z,25
2017-07-18T08:00:11.146Z,25
2017-07-18T08:02:09.745Z,25
2017-07-18T08:04:12.646Z,25
2017-07-18T08:06:06.660Z,25
2017-07-18T08:08:12.570Z,24
2017-07-18T08:10:18.115Z,23
2017-07-18T08:12:09.266Z,24
2017-07-18T08:14:07.600Z,25
2017-07-18T08:16:11.268Z,25
2017-07-18T08:18:08.369Z,23
2017-07-18T08:22:07.086Z,24
2017-07-18T08:24:20.496Z,22
2017-07-18T08:26:08.702Z,22
2017-07-18T08:28:07.301Z,23
2017-07-18T08:30:09.657Z,22
2017-07-18T08:32:12.253Z,23
2017-07-18T08:34:14.170Z,22
2017-07-18T08:36:07.107Z,22
2017-07-18T08:38:06.916Z,22
2017-07-18T08:40:06.852Z,22
2017-07-18T08:42:06.542Z,22
2017-07-18T08:44:12.273Z,22
2017-07-18T08:46:09.710Z,22
2017-07-18T08:48:11.936Z,22
2017-07-18T08:50:09.212Z,21
2017-07-18T08:52:19.861Z,21
2017-07-18T08:54:06.661Z,20
2017-07-18T08:56:07.394Z,21
2017-07-18T08:58:12.167Z,21
2017-07-18T09:00:09.418Z,21
2017-07-18T09:02:07.175Z,20
2017-07-18T09:04:09.633Z,21
2017-07-18T09:06:09.923Z,20
2017-07-18T09:08:09.241Z,20
2017-07-18T09:10:07.271Z,21
2017-07-18T09:12:06.989Z,21
2017-07-18T09:14:11.767Z,21
2017-07-18T09:16:09.167Z,20
2017-07-18T09:18:09.667Z,20
2017-07-18T09:20:07.396Z,20
2017-07-18T09:22:09.768Z,20
2017-07-18T09:24:11.557Z,20
2017-07-18T09:26:09.754Z,21
2017-07-18T09:28:08.995Z,20
2017-07-18T09:30:06.658Z,20
2017-07-18T09:32:09.884Z,20
2017-07-18T09:34:11.783Z,20
2017-07-18T09:36:14.150Z,20
2017-07-18T09:38:09.396Z,20
2017-07-18T09:40:08.668Z,20
2017-07-18T09:42:07.593Z,20
2017-07-18T09:44:12.581Z,20
2017-07-18T09:46:13.671Z,19
2017-07-18T09:48:07.571Z,20
2017-07-18T09:50:07.324Z,20
2017-07-18T09:52:07.126Z,20
2017-07-18T09:54:09.405Z,20
2017-07-18T09:56:11.195Z,20
2017-07-18T09:58:07.554Z,20
2017-07-18T10:00:06.721Z,20
2017-07-18T10:02:07.456Z,20
2017-07-18T10:04:07.615Z,20
2017-07-18T10:06:12.470Z,19
2017-07-18T10:08:10.734Z,20
2017-07-18T10:10:09.056Z,20
2017-07-18T10:12:06.774Z,19
2017-07-18T10:14:12.160Z,20
2017-07-18T10:16:09.916Z,20
2017-07-18T10:18:07.702Z,20
2017-07-18T10:20:06.906Z,20
2017-07-18T10:22:09.286Z,20
2017-07-18T10:24:07.013Z,19
2017-07-18T10:26:06.727Z,20
2017-07-18T10:28:06.579Z,20
2017-07-18T10:30:10.078Z,20
2017-07-18T10:32:09.315Z,20
2017-07-18T10:34:07.096Z,20
2017-07-18T10:36:06.836Z,20
2017-07-18T10:38:06.572Z,20
2017-07-18T10:40:07.509Z,20
2017-07-18T10:42:09.779Z,20
2017-07-18T10:44:09.077Z,20
2017-07-18T10:46:09.608Z,20
2017-07-18T10:48:07.344Z,20
2017-07-18T10:50:07.054Z,20
2017-07-18T10:52:07.106Z,20
2017-07-18T10:54:16.967Z,19
2017-07-18T10:56:06.747Z,19
2017-07-18T10:58:06.497Z,20
2017-07-18T11:00:07.178Z,20
2017-07-18T11:02:07.142Z,19
2017-07-18T11:04:06.988Z,20
2017-07-18T11:06:06.844Z,20
2017-07-18T11:08:09.070Z,20
2017-07-18T11:10:11.917Z,19
2017-07-18T11:12:06.629Z,19
2017-07-18T11:14:07.385Z,19
2017-07-18T11:16:12.288Z,20
2017-07-18T11:18:07.397Z,19
2017-07-18T11:20:07.236Z,21
2017-07-18T11:22:09.885Z,20
2017-07-18T11:24:19.243Z,20
2017-07-18T11:26:14.567Z,20
2017-07-18T11:28:10.016Z,20
2017-07-18T11:30:11.933Z,20
2017-07-18T11:32:06.646Z,20
2017-07-18T11:34:07.507Z,20
2017-07-18T11:36:12.284Z,21
2017-07-18T11:38:12.049Z,20
2017-07-18T11:40:06.961Z,21
2017-07-18T11:42:06.699Z,21
2017-07-18T11:44:11.419Z,22
2017-07-18T11:46:09.852Z,21
2017-07-18T11:48:11.567Z,20
2017-07-18T11:50:07.259Z,21
2017-07-18T11:52:12.381Z,20
2017-07-18T11:54:07.167Z,21
2017-07-18T11:56:07.055Z,21
2017-07-18T11:58:06.943Z,21
2017-07-18T12:00:11.696Z,20
2017-07-18T12:02:06.437Z,20
2017-07-18T12:04:07.264Z,21
2017-07-18T12:06:09.686Z,21
2017-07-18T12:08:07.400Z,21
2017-07-18T12:10:12.403Z,21
2017-07-18T12:12:09.678Z,21
2017-07-18T12:14:07.411Z,20
2017-07-18T12:16:07.237Z,21
2017-07-18T12:18:07.147Z,21
2017-07-18T12:20:09.432Z,21
2017-07-18T12:22:07.245Z,21
2017-07-18T12:24:06.917Z,22
2017-07-18T12:26:06.820Z,21
2017-07-18T12:28:09.583Z,22
2017-07-18T12:30:07.293Z,21
2017-07-18T12:32:07.107Z,22
2017-07-18T12:34:13.591Z,22
2017-07-18T12:36:14.673Z,21
2017-07-18T12:38:07.588Z,20
2017-07-18T12:40:07.480Z,21
2017-07-18T12:42:12.883Z,22
2017-07-18T12:44:09.129Z,21
2017-07-18T12:46:07.197Z,21
2017-07-18T12:48:09.177Z,22
2017-07-18T12:50:11.896Z,21
2017-07-18T12:52:06.768Z,21
2017-07-18T12:54:09.352Z,22
2017-07-18T12:56:12.792Z,22
2017-07-18T12:58:10.234Z,22
2017-07-18T13:00:10.523Z,22
2017-07-18T13:02:17.367Z,21
2017-07-18T13:04:12.364Z,20
2017-07-18T13:06:07.076Z,22
2017-07-18T13:08:12.060Z,22
2017-07-18T13:10:09.309Z,22
2017-07-18T13:12:07.004Z,21
2017-07-18T13:14:06.788Z,22
2017-07-18T13:16:06.597Z,21
2017-07-18T13:18:06.519Z,22
2017-07-18T13:20:07.242Z,22
2017-07-18T13:22:07.360Z,21
2017-07-18T13:24:09.614Z,21
2017-07-18T13:26:12.437Z,20
2017-07-18T13:28:07.285Z,20
2017-07-18T13:30:17.094Z,21
2017-07-18T13:32:06.818Z,20
2017-07-18T13:34:06.561Z,21
2017-07-18T13:36:07.270Z,20
2017-07-18T13:38:07.024Z,20
2017-07-18T13:40:06.883Z,20
2017-07-18T13:42:06.676Z,20
2017-07-18T13:44:07.444Z,20
2017-07-18T13:46:09.806Z,20
2017-07-18T13:48:06.611Z,20
2017-07-18T13:50:07.513Z,20
2017-07-18T13:52:10.013Z,20
2017-07-18T13:54:06.792Z,19
2017-07-18T13:56:11.647Z,20
2017-07-18T13:58:10.013Z,20
2017-07-18T14:00:06.715Z,20
2017-07-18T14:02:19.077Z,19
2017-07-18T14:04:14.526Z,19
2017-07-18T14:06:07.261Z,20
2017-07-18T14:08:06.975Z,20
2017-07-18T14:10:09.252Z,20
2017-07-18T14:12:06.955Z,20
2017-07-18T14:14:09.189Z,20
2017-07-18T14:16:09.674Z,20
2017-07-18T14:18:06.608Z,19
2017-07-18T14:20:12.380Z,20
2017-07-18T14:22:07.118Z,20
2017-07-18T14:24:09.363Z,20
2017-07-18T14:26:07.025Z,20
2017-07-18T14:28:06.801Z,20
2017-07-18T14:30:06.654Z,20
2017-07-18T14:32:09.843Z,20
2017-07-18T14:34:06.570Z,20
2017-07-18T14:36:07.252Z,19
2017-07-18T14:38:09.487Z,19
2017-07-18T14:40:09.775Z,19
2017-07-18T14:42:06.546Z,19
2017-07-18T14:44:07.262Z,19
2017-07-18T14:46:07.521Z,20
2017-07-18T14:48:07.174Z,19
2017-07-18T14:50:06.876Z,19
2017-07-18T14:52:06.855Z,19
2017-07-18T14:54:09.036Z,19
2017-07-18T14:56:06.763Z,19
2017-07-18T14:58:09.177Z,19
2017-07-18T15:00:14.439Z,19
2017-07-18T15:02:07.191Z,19
2017-07-18T15:04:09.460Z,19
2017-07-18T15:06:12.198Z,19
2017-07-18T15:08:09.403Z,19
2017-07-18T15:10:12.426Z,19
2017-07-18T15:12:12.217Z,19
2017-07-18T15:14:07.005Z,19
2017-07-18T15:16:06.895Z,19
2017-07-18T15:18:06.867Z,19
2017-07-18T15:20:06.547Z,19
2017-07-18T15:22:07.302Z,18
2017-07-18T15:24:07.110Z,19
2017-07-18T15:26:09.325Z,19
2017-07-18T15:28:09.674Z,18
2017-07-18T15:30:07.456Z,18
2017-07-18T15:32:07.209Z,18
2017-07-18T15:34:07.066Z,18
2017-07-18T15:36:11.310Z,18
2017-07-18T15:38:10.154Z,18
2017-07-18T15:40:12.078Z,18
2017-07-18T15:42:06.780Z,18
2017-07-18T15:44:09.024Z,18
2017-07-18T15:46:07.324Z,18
2017-07-18T15:48:07.072Z,18
2017-07-18T15:50:09.430Z,18
2017-07-18T15:52:09.655Z,18
2017-07-18T15:54:07.370Z,18
2017-07-18T15:56:07.288Z,18
2017-07-18T15:58:07.027Z,18
2017-07-18T16:00:06.831Z,18
2017-07-18T16:02:11.664Z,18
2017-07-18T16:04:07.455Z,18
2017-07-18T16:06:09.842Z,18
2017-07-18T16:08:11.596Z,18
2017-07-18T16:10:07.724Z,18
2017-07-18T16:12:08.986Z,18
2017-07-18T16:14:09.210Z,18
2017-07-18T16:16:09.484Z,18
2017-07-18T16:18:06.431Z,18
2017-07-18T16:20:09.665Z,18
2017-07-18T16:22:15.144Z,18
2017-07-18T16:24:06.829Z,18
2017-07-18T16:26:14.134Z,18
2017-07-18T16:28:06.992Z,18
2017-07-18T16:30:06.694Z,18
2017-07-18T16:32:08.924Z,18
2017-07-18T16:34:06.850Z,18
2017-07-18T16:36:14.181Z,18
2017-07-18T16:38:12.410Z,18
2017-07-18T16:40:11.742Z,18
2017-07-18T16:42:06.457Z,18
2017-07-18T16:44:07.188Z,18
2017-07-18T16:46:09.569Z,18
2017-07-18T16:48:09.804Z,18
2017-07-18T16:50:06.478Z,18
2017-07-18T16:52:17.411Z,18
2017-07-18T16:54:07.335Z,18
2017-07-18T16:56:07.094Z,18
2017-07-18T16:58:09.377Z,18
2017-07-18T17:00:07.075Z,18
2017-07-18T17:02:19.428Z,18
2017-07-18T17:04:07.242Z,18
2017-07-18T17:06:14.643Z,18
2017-07-18T17:08:07.357Z,18
2017-07-18T17:10:07.278Z,18
2017-07-18T17:12:09.562Z,18
2017-07-18T17:14:07.260Z,18
2017-07-18T17:16:09.593Z,18
2017-07-18T17:18:06.448Z,18
2017-07-18T17:20:17.323Z,18
2017-07-18T17:22:11.068Z,18
2017-07-18T17:24:09.268Z,18
2017-07-18T17:26:07.020Z,18
2017-07-18T17:28:06.809Z,18
2017-07-18T17:30:06.620Z,18
2017-07-18T17:32:12.405Z,18
2017-07-18T17:34:09.803Z,18
2017-07-18T17:36:06.542Z,18
2017-07-18T17:38:07.226Z,18
2017-07-18T17:40:07.187Z,18
2017-07-18T17:42:06.928Z,18
2017-07-18T17:44:14.364Z,18
2017-07-18T17:46:17.189Z,18
2017-07-18T17:48:07.034Z,18
2017-07-18T17:50:11.948Z,18
2017-07-18T17:52:06.801Z,18
2017-07-18T17:54:06.594Z,18
2017-07-18T17:56:12.372Z,18
2017-07-18T17:58:12.116Z,18
2017-07-18T18:00:06.795Z,18
2017-07-18T18:02:09.029Z,18
2017-07-18T18:04:09.323Z,18
2017-07-18T18:06:09.539Z,18
2017-07-18T18:08:07.283Z,18
2017-07-18T18:10:07.069Z,18
2017-07-18T18:12:07.269Z,18
2017-07-18T18:14:09.358Z,18
2017-07-18T18:16:07.600Z,18
2017-07-18T18:18:06.587Z,18
2017-07-18T18:20:10.002Z,18
2017-07-18T18:22:13.973Z,18
2017-07-18T18:24:08.420Z,18
2017-07-18T18:26:07.204Z,18
2017-07-18T18:28:09.907Z,18
2017-07-18T18:30:08.014Z,18
2017-07-18T18:32:09.741Z,18
2017-07-18T18:34:09.339Z,18
2017-07-18T18:36:08.705Z,18
2017-07-18T18:38:10.060Z,18
2017-07-18T18:40:14.624Z,18
2017-07-18T18:42:07.340Z,18
2017-07-18T18:44:07.286Z,18
2017-07-18T18:46:15.062Z,18
2017-07-18T18:48:06.785Z,18
2017-07-18T18:50:11.548Z,18
2017-07-18T18:52:10.018Z,18
2017-07-18T18:54:06.817Z,18
2017-07-18T18:56:06.562Z,18
2017-07-18T18:58:07.316Z,18
2017-07-18T19:00:07.070Z,18
2017-07-18T19:02:06.885Z,18
2017-07-18T19:04:12.032Z,18
2017-07-18T19:06:06.779Z,18
2017-07-18T19:08:06.460Z,18
2017-07-18T19:10:09.832Z,18
2017-07-18T19:12:06.531Z,18
2017-07-18T19:14:10.001Z,18
2017-07-18T19:16:09.385Z,18
2017-07-18T19:18:10.025Z,18
2017-07-18T19:20:06.836Z,18
2017-07-18T19:22:14.515Z,18
2017-07-18T19:24:09.813Z,18
2017-07-18T19:26:11.601Z,18
2017-07-18T19:28:07.506Z,18
2017-07-18T19:30:07.318Z,18
2017-07-18T19:32:07.044Z,18
2017-07-18T19:34:09.477Z,18
2017-07-18T19:36:07.177Z,18
2017-07-18T19:38:12.000Z,18
2017-07-18T19:40:09.384Z,18
2017-07-18T19:42:07.119Z,18
2017-07-18T19:44:06.941Z,18
2017-07-18T19:46:09.302Z,18
2017-07-18T19:48:12.102Z,18
2017-07-18T19:50:06.840Z,18
2017-07-18T19:52:06.833Z,18
2017-07-18T19:54:09.069Z,18
2017-07-18T19:56:06.766Z,18
2017-07-18T19:58:06.488Z,18
2017-07-18T20:00:07.296Z,18
2017-07-18T20:02:17.141Z,18
2017-07-18T20:04:06.930Z,18
2017-07-18T20:06:09.323Z,18
2017-07-18T20:08:07.068Z,18
2017-07-18T20:10:09.642Z,18
2017-07-18T20:12:09.909Z,18
2017-07-18T20:14:06.629Z,18
2017-07-18T20:16:18.283Z,18
2017-07-18T20:18:14.767Z,18
2017-07-18T20:20:07.166Z,18
2017-07-18T20:22:11.882Z,18
2017-07-18T20:24:14.226Z,18
2017-07-18T20:26:08.751Z,18
2017-07-18T20:28:09.149Z,18
2017-07-18T20:30:08.021Z,18
2017-07-18T20:32:06.792Z,18
2017-07-18T20:34:12.157Z,18
2017-07-18T20:36:09.584Z,18
2017-07-18T20:38:10.065Z,18
2017-07-18T20:40:14.570Z,18
2017-07-18T20:42:07.271Z,18
2017-07-18T20:44:12.065Z,18
2017-07-18T20:46:12.036Z,18
2017-07-18T20:48:09.275Z,18
2017-07-18T20:50:09.571Z,18
2017-07-18T20:52:07.604Z,18
2017-07-18T20:54:13.443Z,18
2017-07-18T20:56:07.181Z,18
2017-07-18T20:58:07.089Z,18
2017-07-18T21:00:09.467Z,18
2017-07-18T21:02:09.788Z,18
2017-07-18T21:04:14.160Z,18
2017-07-18T21:06:06.880Z,18
2017-07-18T21:08:07.135Z,18
2017-07-18T21:10:06.936Z,18
2017-07-18T21:12:06.760Z,18
2017-07-18T21:14:08.959Z,18
2017-07-18T21:16:06.879Z,18
2017-07-18T21:18:11.960Z,18
2017-07-18T21:20:06.698Z,18
2017-07-18T21:22:11.507Z,18
2017-07-18T21:24:07.279Z,18
2017-07-18T21:26:12.070Z,18
2017-07-18T21:28:07.815Z,18
2017-07-18T21:30:09.043Z,18
2017-07-18T21:32:09.290Z,18
2017-07-18T21:34:07.144Z,18
2017-07-18T21:36:11.981Z,18
2017-07-18T21:38:09.518Z,18
2017-07-18T21:40:09.809Z,18
2017-07-18T21:42:16.377Z,18
2017-07-18T21:44:13.189Z,18
2017-07-18T21:46:17.330Z,18
2017-07-18T21:48:07.116Z,18
2017-07-18T21:50:07.057Z,18
2017-07-18T21:52:14.563Z,18
2017-07-18T21:54:07.269Z,18
2017-07-18T21:56:07.073Z,18
2017-07-18T21:58:06.980Z,18
2017-07-18T22:00:09.251Z,18
2017-07-18T22:02:09.540Z,18
2017-07-18T22:04:07.335Z,18
2017-07-18T22:06:07.066Z,18
2017-07-18T22:08:09.276Z,18
2017-07-18T22:10:09.703Z,18
2017-07-18T22:12:06.515Z,18
2017-07-18T22:14:07.434Z,18
2017-07-18T22:16:07.168Z,18
2017-07-18T22:18:07.557Z,18
2017-07-18T22:20:07.319Z,18
2017-07-18T22:22:12.491Z,18
2017-07-18T22:24:07.238Z,18
2017-07-18T22:26:07.006Z,18
2017-07-18T22:28:06.979Z,18
2017-07-18T22:30:11.765Z,18
2017-07-18T22:32:06.561Z,18
2017-07-18T22:34:09.962Z,18
2017-07-18T22:36:11.701Z,18
2017-07-18T22:38:06.649Z,18
2017-07-18T22:40:09.472Z,18
2017-07-18T22:42:12.327Z,18
2017-07-18T22:44:07.116Z,18
2017-07-18T22:46:06.916Z,18
2017-07-18T22:48:06.678Z,18
2017-07-18T22:50:09.941Z,18
2017-07-18T22:52:11.864Z,18
2017-07-18T22:54:16.885Z,18
2017-07-18T22:56:06.586Z,18
2017-07-18T22:58:08.137Z,18
2017-07-18T23:00:06.921Z,18
2017-07-18T23:02:07.053Z,18
2017-07-18T23:04:14.427Z,18
2017-07-18T23:06:07.126Z,18
2017-07-18T23:08:09.383Z,18
2017-07-18T23:10:07.458Z,18
2017-07-18T23:12:09.723Z,18
2017-07-18T23:14:06.577Z,18
2017-07-18T23:16:12.521Z,18
2017-07-18T23:18:06.513Z,18
2017-07-18T23:20:07.245Z,18
2017-07-18T23:22:07.071Z,18
2017-07-18T23:24:06.885Z,18
2017-07-18T23:26:06.606Z,18
2017-07-18T23:28:08.802Z,18
2017-07-18T23:30:06.512Z,18
2017-07-18T23:32:07.235Z,18
2017-07-18T23:34:07.366Z,18
2017-07-18T23:36:07.047Z,18
2017-07-18T23:38:06.783Z,18
2017-07-18T23:40:06.517Z,18
2017-07-18T23:42:09.739Z,18
2017-07-18T23:44:08.989Z,18
2017-07-18T23:46:11.876Z,19
2017-07-18T23:48:11.629Z,19
2017-07-18T23:50:07.466Z,18
2017-07-18T23:52:07.278Z,18
2017-07-18T23:54:06.991Z,19
2017-07-18T23:56:09.214Z,18
2017-07-18T23:58:09.582Z,19
